createdAt,value
2024-02-19T00:01:34.939Z,5.23
2024-02-19T00:04:04.771Z,5.05
2024-02-19T00:06:32.436Z,5.31
2024-02-19T00:09:00.065Z,5.21
2024-02-19T00:11:27.664Z,5.24
2024-02-19T00:13:57.891Z,5.44
2024-02-19T00:16:25.480Z,5.86
2024-02-19T00:18:55.730Z,6.13
2024-02-19T00:21:23.506Z,5.47
2024-02-19T00:23:52.166Z,5.31
2024-02-19T00:26:19.816Z,5.10
2024-02-19T00:28:47.504Z,5.03
2024-02-19T00:31:15.119Z,5.18
2024-02-19T00:33:42.984Z,5.09
2024-02-19T00:36:12.085Z,5.13
2024-02-19T00:38:39.658Z,5.56
2024-02-19T00:41:07.228Z,5.44
2024-02-19T00:43:34.822Z,5.40
2024-02-19T00:46:02.492Z,5.36
2024-02-19T00:48:30.123Z,5.18
2024-02-19T00:50:57.703Z,5.36
2024-02-19T00:53:26.626Z,5.41
2024-02-19T00:55:54.750Z,5.41
2024-02-19T00:58:22.395Z,5.29
2024-02-19T01:00:50.777Z,5.30
2024-02-19T01:03:18.595Z,5.13
2024-02-19T01:05:46.387Z,5.30
2024-02-19T01:08:14.049Z,4.97
2024-02-19T01:10:43.103Z,4.96
2024-02-19T01:13:10.860Z,5.12
2024-02-19T01:15:38.569Z,5.47
2024-02-19T01:18:06.614Z,5.10
2024-02-19T01:20:34.251Z,5.32
2024-02-19T01:23:01.832Z,5.14
2024-02-19T01:25:29.424Z,5.54
2024-02-19T01:27:58.811Z,5.90
2024-02-19T01:30:27.817Z,5.68
2024-02-19T01:32:55.412Z,5.35
2024-02-19T01:35:23.399Z,6.08
2024-02-19T01:37:51.029Z,5.62
2024-02-19T01:40:18.941Z,5.46
2024-02-19T01:42:47.830Z,5.51
2024-02-19T01:45:27.374Z,5.34
2024-02-19T01:47:56.068Z,5.69
2024-02-19T01:50:24.831Z,5.61
2024-02-19T01:52:53.576Z,5.76
2024-02-19T01:55:22.346Z,5.73
2024-02-19T01:57:52.930Z,5.86
2024-02-19T02:00:21.466Z,5.71
2024-02-19T02:02:50.732Z,5.85
2024-02-19T02:05:18.369Z,5.73
2024-02-19T02:07:46.546Z,5.72
2024-02-19T02:10:14.376Z,5.87
2024-02-19T02:12:42.171Z,5.99
2024-02-19T02:15:10.548Z,6.59
2024-02-19T02:17:38.207Z,6.65
2024-02-19T02:20:09.415Z,6.23
2024-02-19T02:22:37.276Z,6.52
2024-02-19T02:25:05.624Z,6.04
2024-02-19T02:27:34.750Z,6.04
2024-02-19T02:30:04.124Z,6.25
2024-02-19T02:32:34.712Z,6.50
2024-02-19T02:35:02.650Z,6.42
2024-02-19T02:37:31.621Z,6.31
2024-02-19T02:39:59.247Z,6.47
2024-02-19T02:42:26.912Z,6.17
2024-02-19T02:44:55.883Z,5.96
2024-02-19T02:51:35.510Z,6.14
2024-02-19T02:54:03.296Z,6.05
2024-02-19T02:56:31.578Z,6.70
2024-02-19T02:58:59.142Z,6.62
2024-02-19T03:01:30.065Z,6.32
2024-02-19T03:03:58.060Z,6.39
2024-02-19T03:06:26.741Z,6.62
2024-02-19T03:08:54.617Z,6.37
2024-02-19T03:11:22.992Z,6.35
2024-02-19T03:13:51.166Z,6.16
2024-02-19T03:16:18.841Z,6.15
2024-02-19T03:18:48.099Z,6.45
2024-02-19T03:21:16.986Z,5.75
2024-02-19T03:23:51.231Z,5.99
2024-02-19T03:26:34.788Z,6.19
2024-02-19T03:29:12.637Z,6.06
2024-02-19T03:31:40.386Z,6.12
2024-02-19T03:34:09.706Z,6.15
2024-02-19T03:36:37.715Z,6.15
2024-02-19T03:39:06.002Z,6.48
2024-02-19T03:41:34.242Z,5.81
2024-02-19T03:44:01.823Z,6.25
2024-02-19T03:46:29.399Z,5.88
2024-02-19T03:48:57.223Z,6.16
2024-02-19T03:51:26.291Z,6.24
2024-02-19T03:53:55.468Z,6.01
2024-02-19T03:56:23.057Z,6.42
2024-02-19T03:58:51.186Z,6.55
2024-02-19T04:01:18.899Z,6.48
2024-02-19T04:03:46.648Z,6.60
2024-02-19T04:06:14.333Z,6.33
2024-02-19T04:08:43.261Z,6.61
2024-02-19T04:11:10.854Z,6.21
2024-02-19T04:13:38.505Z,6.21
2024-02-19T04:16:10.042Z,6.43
2024-02-19T04:18:37.843Z,6.31
2024-02-19T04:21:05.773Z,6.44
2024-02-19T04:23:33.373Z,6.93
2024-02-19T04:26:02.488Z,6.74
2024-02-19T04:28:30.218Z,7.29
2024-02-19T04:30:57.813Z,6.88
2024-02-19T04:33:25.474Z,6.75
2024-02-19T04:35:53.072Z,6.26
2024-02-19T04:38:21.150Z,6.41
2024-02-19T04:40:48.770Z,6.62
2024-02-19T04:43:17.793Z,6.49
2024-02-19T04:45:45.396Z,6.32
2024-02-19T04:48:12.999Z,5.98
2024-02-19T04:50:40.640Z,5.62
2024-02-19T04:53:08.296Z,5.89
2024-02-19T04:55:36.213Z,5.82
2024-02-19T04:58:03.918Z,5.70
2024-02-19T05:00:35.081Z,5.60
2024-02-19T05:03:03.420Z,5.68
2024-02-19T05:05:31.022Z,5.73
2024-02-19T05:07:58.680Z,5.59
2024-02-19T05:10:26.300Z,5.38
2024-02-19T05:12:53.970Z,5.65
2024-02-19T05:15:21.576Z,5.79
2024-02-19T05:17:50.653Z,5.97
2024-02-19T05:20:18.869Z,6.02
2024-02-19T05:22:48.157Z,5.73
2024-02-19T05:25:16.055Z,6.34
2024-02-19T05:27:45.171Z,6.32
2024-02-19T05:30:14.257Z,6.21
2024-02-19T05:32:41.922Z,6.44
2024-02-19T05:35:11.756Z,6.53
2024-02-19T05:37:39.366Z,6.23
2024-02-19T05:40:08.456Z,6.52
2024-02-19T05:42:36.082Z,6.35
2024-02-19T05:45:03.919Z,6.10
2024-02-19T05:47:31.561Z,6.73
2024-02-19T05:49:59.302Z,6.71
2024-02-19T05:52:28.247Z,6.95
2024-02-19T05:54:57.464Z,7.07
2024-02-19T05:57:25.368Z,7.12
2024-02-19T05:59:54.598Z,6.97
2024-02-19T06:02:23.540Z,7.21
2024-02-19T06:04:51.660Z,7.43
2024-02-19T06:07:19.307Z,7.85
2024-02-19T06:09:48.528Z,7.98
2024-02-19T06:12:16.146Z,8.37
2024-02-19T06:14:44.011Z,8.02
2024-02-19T06:17:11.578Z,7.48
2024-02-19T06:19:42.447Z,7.27
2024-02-19T06:22:10.423Z,7.53
2024-02-19T06:24:38.580Z,7.74
2024-02-19T06:27:07.816Z,7.67
2024-02-19T06:29:35.659Z,7.98
2024-02-19T06:32:03.359Z,7.85
2024-02-19T06:34:32.549Z,7.53
2024-02-19T06:37:00.480Z,7.47
2024-02-19T06:39:28.066Z,7.79
2024-02-19T06:41:55.655Z,8.08
2024-02-19T06:44:24.544Z,7.90
2024-02-19T06:46:52.107Z,8.24
2024-02-19T06:49:23.298Z,7.93
2024-02-19T06:51:51.008Z,7.82
2024-02-19T06:54:18.641Z,8.28
2024-02-19T06:56:46.840Z,8.50
2024-02-19T06:59:14.606Z,8.54
2024-02-19T07:01:43.608Z,8.69
2024-02-19T07:04:12.454Z,8.27
2024-02-19T07:06:40.724Z,8.72
2024-02-19T07:09:08.461Z,8.87
2024-02-19T07:11:39.374Z,8.78
2024-02-19T07:14:07.404Z,8.88
2024-02-19T07:16:35.009Z,8.19
2024-02-19T07:19:04.676Z,8.37
2024-02-19T07:21:32.563Z,8.28
2024-02-19T07:24:00.170Z,8.42
2024-02-19T07:26:27.752Z,8.09
2024-02-19T07:28:55.410Z,7.88
2024-02-19T07:31:23.032Z,7.47
2024-02-19T07:33:51.097Z,7.82
2024-02-19T07:36:20.141Z,7.73
2024-02-19T07:38:47.721Z,7.84
2024-02-19T07:41:16.652Z,7.53
2024-02-19T07:43:45.251Z,8.02
2024-02-19T07:46:13.490Z,8.21
2024-02-19T07:48:41.234Z,8.32
2024-02-19T07:51:09.332Z,7.43
2024-02-19T07:53:38.307Z,7.54
2024-02-19T07:56:06.991Z,7.19
2024-02-19T07:58:34.747Z,7.05
2024-02-19T08:01:05.311Z,6.96
2024-02-19T08:03:34.070Z,6.74
2024-02-19T08:06:02.162Z,6.75
2024-02-19T08:08:30.700Z,6.65
2024-02-19T08:11:00.430Z,6.84
2024-02-19T08:13:28.180Z,7.45
2024-02-19T08:15:55.903Z,6.47
2024-02-19T08:18:24.522Z,6.35
2024-02-19T08:20:53.369Z,6.75
2024-02-19T08:23:20.939Z,6.97
2024-02-19T08:25:49.405Z,6.95
2024-02-19T08:28:18.398Z,7.22
2024-02-19T08:30:46.337Z,7.09
2024-02-19T08:33:14.091Z,7.10
2024-02-19T08:35:42.556Z,6.83
2024-02-19T08:38:10.323Z,6.47
2024-02-19T08:40:38.001Z,6.51
2024-02-19T08:43:05.988Z,6.77
2024-02-19T08:45:37.215Z,6.36
2024-02-19T08:48:06.163Z,6.28
2024-02-19T08:50:33.870Z,6.29
2024-02-19T08:53:01.637Z,6.21
2024-02-19T08:55:29.432Z,5.73
2024-02-19T08:57:57.305Z,5.78
2024-02-19T09:00:25.030Z,5.79
2024-02-19T09:02:54.062Z,6.00
2024-02-19T09:05:23.742Z,6.00
2024-02-19T09:07:51.387Z,6.18
2024-02-19T09:10:19.005Z,6.38
2024-02-19T09:12:46.632Z,6.63
2024-02-19T09:15:14.261Z,6.42
2024-02-19T09:17:41.864Z,6.25
2024-02-19T09:20:12.708Z,6.68
2024-02-19T09:22:42.827Z,6.75
2024-02-19T09:25:10.650Z,6.98
2024-02-19T09:27:38.218Z,6.80
2024-02-19T09:30:08.923Z,6.37
2024-02-19T09:32:36.579Z,6.66
2024-02-19T09:35:04.734Z,6.64
2024-02-19T09:37:33.938Z,6.37
2024-02-19T09:40:01.691Z,6.04
2024-02-19T09:42:30.713Z,5.98
2024-02-19T09:44:58.408Z,6.33
2024-02-19T09:47:26.367Z,6.35
2024-02-19T09:49:55.141Z,6.56
2024-02-19T09:52:29.140Z,6.47
2024-02-19T09:55:00.157Z,6.98
2024-02-19T09:57:29.200Z,6.78
2024-02-19T09:59:59.450Z,6.95
2024-02-19T10:02:27.211Z,6.89
2024-02-19T10:07:23.056Z,7.30
2024-02-19T10:09:51.641Z,7.45
2024-02-19T10:12:20.989Z,7.50
2024-02-19T10:14:48.804Z,7.60
2024-02-19T10:17:22.595Z,7.86
2024-02-19T10:20:00.834Z,7.48
2024-02-19T10:22:28.511Z,7.80
2024-02-19T10:24:56.186Z,7.35
2024-02-19T10:27:25.309Z,7.21
2024-02-19T10:29:52.895Z,7.20
2024-02-19T10:32:20.472Z,7.29
2024-02-19T10:34:48.099Z,7.21
2024-02-19T10:37:15.894Z,7.20
2024-02-19T10:39:43.815Z,6.90
2024-02-19T10:42:11.774Z,6.97
2024-02-19T10:44:42.675Z,7.21
2024-02-19T10:47:10.774Z,6.95
2024-02-19T10:49:38.471Z,7.26
2024-02-19T10:52:07.001Z,7.30
2024-02-19T10:54:34.623Z,7.45
2024-02-19T10:57:09.067Z,7.35
2024-02-19T10:59:37.193Z,6.54
2024-02-19T11:02:10.821Z,6.32
2024-02-19T11:04:38.550Z,6.51
2024-02-19T11:07:07.206Z,6.64
2024-02-19T11:09:35.713Z,6.73
2024-02-19T11:12:06.464Z,6.87
2024-02-19T11:14:36.818Z,7.21
2024-02-19T11:17:05.687Z,7.59
2024-02-19T11:19:40.695Z,7.84
2024-02-19T11:22:10.864Z,7.63
2024-02-19T11:24:39.800Z,6.98
2024-02-19T11:27:08.881Z,6.84
2024-02-19T11:29:43.750Z,6.97
2024-02-19T11:32:19.160Z,7.19
2024-02-19T11:34:49.084Z,7.40
2024-02-19T11:37:17.183Z,7.05
2024-02-19T11:39:45.687Z,7.10
2024-02-19T11:42:16.252Z,7.18
2024-02-19T11:44:46.377Z,7.32
2024-02-19T11:47:15.939Z,6.77
2024-02-19T11:49:44.632Z,6.72
2024-02-19T11:52:15.213Z,7.05
2024-02-19T11:54:43.360Z,7.15
2024-02-19T11:57:13.631Z,7.27
2024-02-19T11:59:41.279Z,7.27
2024-02-19T12:02:10.673Z,7.16
2024-02-19T12:04:40.245Z,7.40
2024-02-19T12:07:11.390Z,7.69
2024-02-19T12:09:41.127Z,7.72
2024-02-19T12:12:11.066Z,7.88
2024-02-19T12:14:38.892Z,8.10
2024-02-19T12:17:09.319Z,7.58
2024-02-19T12:19:37.096Z,7.98
2024-02-19T12:22:05.303Z,8.03
2024-02-19T12:24:33.028Z,7.65
2024-02-19T12:27:01.952Z,7.51
2024-02-19T12:29:29.673Z,7.47
2024-02-19T12:31:57.252Z,7.32
2024-02-19T12:34:24.980Z,7.49
2024-02-19T12:36:52.816Z,7.71
2024-02-19T12:39:20.717Z,8.06
2024-02-19T12:41:50.022Z,8.37
2024-02-19T12:44:19.004Z,7.88
2024-02-19T12:46:46.738Z,7.47
2024-02-19T12:49:14.584Z,7.16
2024-02-19T12:51:43.139Z,7.20
2024-02-19T12:54:10.886Z,7.52
2024-02-19T12:56:38.511Z,7.15
2024-02-19T12:59:06.119Z,7.13
2024-02-19T13:01:35.439Z,6.88
2024-02-19T13:04:03.518Z,7.21
2024-02-19T13:06:31.930Z,6.99
2024-02-19T13:08:59.994Z,7.31
2024-02-19T13:11:28.845Z,7.36
2024-02-19T13:13:57.901Z,7.41
2024-02-19T13:16:25.601Z,7.60
2024-02-19T13:18:54.716Z,7.29
2024-02-19T13:21:22.487Z,7.35
2024-02-19T13:23:50.581Z,7.06
2024-02-19T13:26:18.219Z,7.48
2024-02-19T13:28:45.963Z,7.34
2024-02-19T13:31:14.053Z,6.94
2024-02-19T13:33:42.857Z,7.30
2024-02-19T13:36:11.902Z,7.33
2024-02-19T13:38:39.778Z,7.73
2024-02-19T13:41:07.727Z,7.54
2024-02-19T13:43:36.165Z,7.62
2024-02-19T13:46:07.690Z,7.11
2024-02-19T13:48:36.989Z,7.30
2024-02-19T13:51:05.139Z,7.64
2024-02-19T13:53:34.216Z,7.94
2024-02-19T13:56:02.352Z,7.99
2024-02-19T13:58:30.779Z,7.86
2024-02-19T14:00:59.249Z,7.75
2024-02-19T14:03:27.344Z,7.52
2024-02-19T14:05:55.075Z,7.74
2024-02-19T14:08:23.148Z,7.58
2024-02-19T14:10:53.021Z,7.73
2024-02-19T14:13:21.329Z,7.76
2024-02-19T14:15:49.207Z,7.53
2024-02-19T14:18:17.326Z,7.79
2024-02-19T14:20:45.025Z,7.83
2024-02-19T14:23:13.593Z,7.78
2024-02-19T14:25:41.413Z,8.07
2024-02-19T14:28:10.975Z,7.72
2024-02-19T14:30:39.872Z,7.62
2024-02-19T14:33:07.596Z,8.02
2024-02-19T14:35:35.547Z,7.91
2024-02-19T14:38:04.335Z,8.12
2024-02-19T14:40:32.585Z,7.45
2024-02-19T14:43:02.098Z,7.85
2024-02-19T14:45:31.370Z,7.38
2024-02-19T14:47:59.151Z,7.44
2024-02-19T14:50:26.883Z,7.87
2024-02-19T14:52:54.646Z,7.40
2024-02-19T14:55:22.321Z,7.67
2024-02-19T14:57:50.261Z,8.14
2024-02-19T15:00:22.475Z,7.99
2024-02-19T15:02:52.271Z,8.07
2024-02-19T15:05:21.291Z,8.17
2024-02-19T15:07:54.882Z,8.24
2024-02-19T15:10:25.663Z,8.18
2024-02-19T15:12:54.434Z,8.47
2024-02-19T15:15:22.392Z,8.68
2024-02-19T15:17:50.858Z,8.70
2024-02-19T15:20:20.684Z,9.15
2024-02-19T15:22:50.746Z,8.93
2024-02-19T15:25:18.534Z,9.24
2024-02-19T15:27:46.877Z,9.71
2024-02-19T15:30:15.390Z,9.73
2024-02-19T15:32:43.118Z,9.79
2024-02-19T15:35:11.061Z,10.23
2024-02-19T15:37:41.367Z,9.99
2024-02-19T15:40:10.705Z,9.73
2024-02-19T15:42:38.963Z,9.78
2024-02-19T15:45:07.845Z,9.37
2024-02-19T15:47:36.325Z,9.83
2024-02-19T15:50:07.592Z,9.58
2024-02-19T15:52:36.581Z,9.56
2024-02-19T15:55:06.776Z,8.96
2024-02-19T15:57:34.749Z,8.66
2024-02-19T16:00:07.476Z,8.36
2024-02-19T16:02:39.944Z,8.15
2024-02-19T16:05:08.847Z,8.29
2024-02-19T16:07:36.804Z,8.62
2024-02-19T16:10:09.453Z,8.65
2024-02-19T16:12:37.130Z,8.75
2024-02-19T16:15:07.963Z,8.74
2024-02-19T16:17:35.604Z,9.36
2024-02-19T16:20:04.313Z,9.21
2024-02-19T16:22:32.191Z,9.29
2024-02-19T16:25:00.366Z,9.19
2024-02-19T16:27:29.739Z,8.91
2024-02-19T16:29:57.392Z,8.90
2024-02-19T16:32:24.964Z,9.14
2024-02-19T16:34:52.623Z,9.10
2024-02-19T16:37:20.316Z,9.30
2024-02-19T16:39:49.492Z,9.46
2024-02-19T16:42:18.118Z,9.54
2024-02-19T16:44:47.341Z,9.63
2024-02-19T16:47:15.051Z,9.16
2024-02-19T16:49:44.764Z,9.08
2024-02-19T16:52:13.469Z,9.21
2024-02-19T16:54:41.246Z,9.03
2024-02-19T16:57:08.825Z,9.31
2024-02-19T16:59:37.493Z,9.14
2024-02-19T17:02:06.623Z,9.35
2024-02-19T17:04:34.352Z,9.13
2024-02-19T17:07:04.345Z,8.99
2024-02-19T17:09:35.068Z,8.99
2024-02-19T17:12:02.793Z,9.16
2024-02-19T17:14:30.349Z,9.11
2024-02-19T17:16:59.773Z,9.14
2024-02-19T17:19:28.807Z,9.16
2024-02-19T17:21:56.527Z,9.22
2024-02-19T17:24:24.332Z,9.21
2024-02-19T17:26:52.260Z,9.20
2024-02-19T17:29:19.812Z,9.30
2024-02-19T17:31:50.182Z,9.16
2024-02-19T17:34:18.685Z,9.23
2024-02-19T17:36:47.933Z,9.20
2024-02-19T17:39:15.569Z,9.19
2024-02-19T17:41:43.164Z,9.19
2024-02-19T17:44:11.186Z,9.26
2024-02-19T17:46:38.825Z,8.97
2024-02-19T17:49:09.503Z,9.15
2024-02-19T17:51:37.440Z,8.98
2024-02-19T17:54:07.919Z,9.02
2024-02-19T17:56:35.507Z,9.01
2024-02-19T17:59:03.228Z,8.90
2024-02-19T18:01:30.912Z,8.87
2024-02-19T18:03:58.632Z,8.86
2024-02-19T18:06:26.260Z,9.03
2024-02-19T18:08:53.888Z,9.01
2024-02-19T18:11:22.883Z,9.26
2024-02-19T18:13:50.844Z,9.09
2024-02-19T18:16:18.466Z,9.13
2024-02-19T18:18:46.357Z,9.08
2024-02-19T18:21:14.319Z,9.12
2024-02-19T18:23:42.178Z,9.05
2024-02-19T18:26:09.908Z,8.67
2024-02-19T18:28:38.888Z,8.78
2024-02-19T18:31:11.338Z,8.45
2024-02-19T18:33:39.393Z,8.52
2024-02-19T18:36:07.708Z,8.74
2024-02-19T18:38:38.385Z,8.32
2024-02-19T18:41:06.168Z,8.46
2024-02-19T18:43:33.861Z,8.18
2024-02-19T18:46:03.005Z,7.55
2024-02-19T18:48:31.853Z,7.28
2024-02-19T18:50:59.875Z,6.18
2024-02-19T18:53:27.832Z,6.42
2024-02-19T18:56:01.339Z,6.16
2024-02-19T18:58:30.401Z,5.74
2024-02-19T19:00:59.136Z,6.33
2024-02-19T19:03:28.953Z,6.59
2024-02-19T19:05:59.765Z,6.12
2024-02-19T19:08:27.763Z,6.32
2024-02-19T19:10:55.566Z,6.28
2024-02-19T19:13:23.960Z,6.63
2024-02-19T19:15:51.722Z,6.69
2024-02-19T19:18:20.147Z,6.62
2024-02-19T19:20:49.129Z,6.73
2024-02-19T19:23:16.946Z,6.33
2024-02-19T19:25:44.554Z,6.78
2024-02-19T19:28:12.284Z,7.20
2024-02-19T19:30:39.881Z,7.55
2024-02-19T19:33:07.516Z,7.70
2024-02-19T19:35:37.311Z,7.90
2024-02-19T19:38:06.884Z,7.47
2024-02-19T19:40:34.448Z,8.01
2024-02-19T19:43:02.212Z,8.25
2024-02-19T19:45:29.844Z,8.30
2024-02-19T19:47:57.496Z,8.45
2024-02-19T19:50:25.156Z,8.33
2024-02-19T19:52:52.761Z,7.93
2024-02-19T19:55:21.740Z,7.93
2024-02-19T19:57:52.888Z,8.15
2024-02-19T20:00:20.844Z,8.52
2024-02-19T20:02:48.431Z,8.67
2024-02-19T20:05:16.173Z,8.61
2024-02-19T20:07:44.111Z,8.26
2024-02-19T20:10:14.904Z,7.83
2024-02-19T20:12:44.007Z,8.22
2024-02-19T20:15:11.990Z,8.38
2024-02-19T20:17:39.601Z,8.49
2024-02-19T20:20:09.059Z,8.57
2024-02-19T20:22:36.726Z,8.71
2024-02-19T20:25:05.224Z,8.87
2024-02-19T20:27:32.854Z,8.61
2024-02-19T20:30:01.941Z,8.83
2024-02-19T20:32:29.760Z,8.59
2024-02-19T20:34:57.455Z,7.90
2024-02-19T20:37:25.153Z,8.44
2024-02-19T20:39:52.804Z,8.45
2024-02-19T20:42:20.406Z,8.62
2024-02-19T20:44:48.020Z,8.30
2024-02-19T20:47:18.590Z,8.25
2024-02-19T20:49:47.810Z,8.25
2024-02-19T20:52:15.681Z,8.24
2024-02-19T20:54:43.370Z,7.90
2024-02-19T20:57:12.436Z,7.46
2024-02-19T20:59:40.086Z,7.71
2024-02-19T21:02:08.009Z,7.18
2024-02-19T21:04:37.861Z,7.50
2024-02-19T21:07:06.260Z,7.59
2024-02-19T21:09:36.116Z,7.59
2024-02-19T21:12:03.719Z,7.27
2024-02-19T21:14:31.513Z,7.75
2024-02-19T21:16:59.390Z,8.10
2024-02-19T21:19:27.100Z,7.98
2024-02-19T21:21:56.094Z,7.83
2024-02-19T21:24:24.964Z,8.08
2024-02-19T21:26:52.626Z,8.46
2024-02-19T21:29:20.266Z,8.66
2024-02-19T21:31:47.913Z,8.70
2024-02-19T21:34:16.064Z,8.62
2024-02-19T21:36:43.823Z,8.74
2024-02-19T21:39:12.784Z,8.72
2024-02-19T21:41:40.722Z,8.87
2024-02-19T21:44:08.377Z,8.91
2024-02-19T21:46:37.229Z,8.90
2024-02-19T21:49:05.146Z,8.90
2024-02-19T21:51:32.912Z,8.99
2024-02-19T21:54:00.494Z,8.92
2024-02-19T21:56:29.412Z,8.91
2024-02-19T21:58:56.986Z,8.64
2024-02-19T22:01:24.687Z,8.71
2024-02-19T22:03:52.494Z,8.64
2024-02-19T22:06:20.264Z,8.66
2024-02-19T22:08:47.863Z,8.97
2024-02-19T22:11:20.472Z,8.99
2024-02-19T22:13:50.575Z,8.83
2024-02-19T22:16:18.244Z,8.58
2024-02-19T22:18:45.887Z,8.80
2024-02-19T22:21:13.492Z,8.79
2024-02-19T22:23:41.227Z,8.30
2024-02-19T22:26:09.540Z,8.40
2024-02-19T22:28:37.251Z,8.49
2024-02-19T22:31:07.272Z,8.67
2024-02-19T22:33:35.036Z,8.73
2024-02-19T22:36:02.605Z,8.69
2024-02-19T22:38:30.230Z,7.76
2024-02-19T22:40:58.166Z,7.58
2024-02-19T22:43:27.487Z,7.71
2024-02-19T22:45:55.375Z,7.71
2024-02-19T22:48:24.503Z,8.14
2024-02-19T22:50:52.192Z,8.36
2024-02-19T22:53:19.758Z,8.20
2024-02-19T22:55:47.402Z,8.38
2024-02-19T22:58:28.731Z,8.35
2024-02-19T23:00:59.676Z,8.57
2024-02-19T23:03:28.908Z,8.73
2024-02-19T23:05:56.771Z,8.66
2024-02-19T23:08:24.612Z,8.64
2024-02-19T23:10:53.079Z,8.73
2024-02-19T23:13:21.085Z,8.77
2024-02-19T23:15:49.250Z,8.75
2024-02-19T23:18:17.033Z,8.62
2024-02-19T23:20:46.094Z,8.51
2024-02-19T23:23:13.707Z,8.32
2024-02-19T23:25:41.773Z,7.73
2024-02-19T23:28:09.491Z,7.94
2024-02-19T23:30:37.243Z,7.81
2024-02-19T23:33:05.247Z,6.97
2024-02-19T23:35:34.160Z,6.86
2024-02-19T23:38:04.501Z,7.53
2024-02-19T23:40:32.289Z,7.37
2024-02-19T23:43:00.282Z,7.22
2024-02-19T23:45:28.377Z,6.94
2024-02-19T23:47:56.054Z,7.15
2024-02-19T23:50:23.907Z,6.76
2024-02-19T23:52:51.514Z,6.87
2024-02-19T23:55:20.483Z,6.82
2024-02-19T23:57:48.181Z,7.18
